Time;durP1;ratioP1;P1;durP2;ratioP2;P2;SDS_P1;SDS_P2;PMS_P1;PMS_P2;Temp;Humidity;BMP_temperature;BMP_pressure;BME280_temperature;BME280_humidity;BME280_pressure;Samples;Min_cycle;Max_cycle;Signal;HPM_P1;HPM_P2
2021/01/07 00:00:50;;;;;;;10.45;6.05;;;;;;;;;;5021078;28;20512;-48
2021/01/07 00:03:16;;;;;;;9.45;5.32;;;;;;;;;;5019175;28;20231;-48
2021/01/07 00:05:42;;;;;;;8.63;5.32;;;;;;;;;;5033286;28;20206;-48
2021/01/07 00:08:08;;;;;;;8.38;5.53;;;;;;;;;;5022210;28;20187;-48
2021/01/07 00:10:34;;;;;;;7.15;5.03;;;;;;;;;;5020711;28;20196;-48
2021/01/07 00:13:00;;;;;;;8.63;5.03;;;;;;;;;;5014556;28;20460;-48
2021/01/07 00:15:26;;;;;;;9.05;5.40;;;;;;;;;;5026540;28;20191;-48
2021/01/07 00:17:52;;;;;;;8.57;5.38;;;;;;;;;;5033718;28;20207;-48
2021/01/07 00:20:18;;;;;;;7.43;4.60;;;;;;;;;;5021380;28;20199;-48
2021/01/07 00:22:44;;;;;;;7.32;4.68;;;;;;;;;;5015274;28;20258;-48
2021/01/07 00:25:10;;;;;;;7.95;4.95;;;;;;;;;;5018971;28;20180;-48
2021/01/07 00:27:36;;;;;;;7.40;5.00;;;;;;;;;;5027064;28;20211;-48
2021/01/07 00:30:04;;;;;;;6.82;4.38;;;;;;;;;;5018344;28;20212;-48
2021/01/07 00:32:30;;;;;;;7.30;4.57;;;;;;;;;;5015463;28;20185;-48
2021/01/07 00:34:56;;;;;;;6.80;4.30;;;;;;;;;;5025584;28;20188;-48
2021/01/07 00:37:22;;;;;;;5.30;4.10;;;;;;;;;;5014524;28;20196;-48
2021/01/07 00:39:48;;;;;;;7.10;4.70;;;;;;;;;;5026261;28;20505;-48
2021/01/07 00:42:16;;;;;;;6.95;4.38;;;;;;;;;;5028887;28;20203;-48
2021/01/07 00:44:42;;;;;;;5.82;4.28;;;;;;;;;;5022484;28;20215;-48
2021/01/07 00:47:08;;;;;;;6.32;3.92;;;;;;;;;;5026867;28;20180;-48
2021/01/07 00:49:34;;;;;;;6.22;3.60;;;;;;;;;;5026914;28;20195;-48
2021/01/07 00:52:00;;;;;;;5.93;3.90;;;;;;;;;;5014224;28;20214;-48
2021/01/07 00:54:26;;;;;;;6.00;4.00;;;;;;;;;;5019446;28;20615;-48
2021/01/07 00:56:52;;;;;;;5.22;3.45;;;;;;;;;;5015600;28;20449;-48
2021/01/07 00:59:18;;;;;;;6.75;3.90;;;;;;;;;;5020637;28;20171;-48
2021/01/07 01:01:47;;;;;;;6.22;3.95;;;;;;;;;;5034718;28;20219;-48
2021/01/07 01:04:13;;;;;;;4.72;3.45;;;;;;;;;;5030591;28;20180;-48
2021/01/07 01:06:39;;;;;;;6.25;3.75;;;;;;;;;;5020086;28;20188;-48
2021/01/07 01:09:05;;;;;;;5.68;3.80;;;;;;;;;;5017846;28;20222;-48
2021/01/07 01:11:58;;;;;;;6.30;3.95;;;;;;;;;;5029977;28;20211;-48
2021/01/07 01:14:24;;;;;;;5.40;3.70;;;;;;;;;;5027817;28;20208;-48
2021/01/07 01:16:50;;;;;;;4.15;3.58;;;;;;;;;;5032780;28;20563;-48
2021/01/07 01:19:16;;;;;;;5.45;3.42;;;;;;;;;;5029859;28;20215;-48
2021/01/07 01:21:42;;;;;;;5.72;3.38;;;;;;;;;;5024312;28;20192;-48
2021/01/07 01:24:09;;;;;;;4.63;3.20;;;;;;;;;;5020272;28;20266;-48
2021/01/07 01:26:35;;;;;;;6.32;3.70;;;;;;;;;;5023692;28;20173;-48
2021/01/07 01:29:01;;;;;;;4.55;3.17;;;;;;;;;;5032492;28;20425;-48
2021/01/07 01:31:27;;;;;;;5.28;3.58;;;;;;;;;;5030241;28;20215;-48
2021/01/07 01:33:53;;;;;;;4.55;3.28;;;;;;;;;;5017834;28;20605;-48
2021/01/07 01:36:26;;;;;;;5.78;3.38;;;;;;;;;;5026768;28;20183;-48
2021/01/07 01:38:52;;;;;;;4.20;2.97;;;;;;;;;;5022928;28;20223;-48
2021/01/07 01:41:18;;;;;;;4.50;3.10;;;;;;;;;;5035493;28;20179;-48
2021/01/07 01:43:44;;;;;;;5.18;2.83;;;;;;;;;;5018898;28;20192;-48
2021/01/07 01:46:10;;;;;;;4.78;3.05;;;;;;;;;;5019944;28;20267;-48
2021/01/07 01:48:36;;;;;;;5.57;2.72;;;;;;;;;;5027394;28;20548;-48
2021/01/07 01:51:02;;;;;;;3.92;3.08;;;;;;;;;;5035290;28;20191;-48
2021/01/07 01:53:29;;;;;;;3.97;2.90;;;;;;;;;;5017299;28;20215;-48
2021/01/07 01:55:55;;;;;;;3.15;2.50;;;;;;;;;;5018639;28;20180;-48
2021/01/07 01:58:21;;;;;;;3.40;2.90;;;;;;;;;;5031376;28;20215;-48
2021/01/07 02:00:47;;;;;;;4.97;2.90;;;;;;;;;;5036491;28;20186;-48
2021/01/07 02:03:13;;;;;;;3.85;2.70;;;;;;;;;;5020821;28;20202;-48
2021/01/07 02:05:40;;;;;;;4.10;2.90;;;;;;;;;;5030023;28;20176;-48
2021/01/07 02:08:07;;;;;;;4.07;2.63;;;;;;;;;;5023479;28;20487;-46
2021/01/07 02:10:33;;;;;;;3.40;2.53;;;;;;;;;;5031541;28;20263;-48
2021/01/07 02:12:59;;;;;;;3.95;2.75;;;;;;;;;;5016655;28;20196;-48
2021/01/07 02:15:25;;;;;;;3.30;2.55;;;;;;;;;;5030499;28;20187;-48
2021/01/07 02:17:52;;;;;;;4.40;2.53;;;;;;;;;;5026472;28;20200;-48
2021/01/07 02:20:22;;;;;;;4.28;2.72;;;;;;;;;;5030622;28;20172;-48
2021/01/07 02:22:51;;;;;;;3.42;2.60;;;;;;;;;;5025134;28;20258;-48
2021/01/07 02:25:17;;;;;;;3.58;2.35;;;;;;;;;;5034763;28;20378;-47
2021/01/07 02:27:43;;;;;;;3.35;2.17;;;;;;;;;;5018864;28;20567;-48
2021/01/07 02:30:09;;;;;;;4.03;2.30;;;;;;;;;;5035246;28;20179;-48
2021/01/07 02:32:35;;;;;;;2.22;2.03;;;;;;;;;;5026783;28;20568;-48
2021/01/07 02:35:01;;;;;;;2.38;2.17;;;;;;;;;;5018094;28;20258;-48
2021/01/07 02:37:27;;;;;;;3.00;2.30;;;;;;;;;;5025568;28;20703;-48
2021/01/07 02:39:53;;;;;;;2.40;2.20;;;;;;;;;;5020415;28;20195;-48
2021/01/07 02:42:19;;;;;;;2.00;1.80;;;;;;;;;;5029971;28;20433;-48
2021/01/07 02:44:45;;;;;;;3.35;2.35;;;;;;;;;;5019739;28;20172;-48
2021/01/07 02:47:11;;;;;;;2.75;2.38;;;;;;;;;;5018594;28;20226;-48
2021/01/07 02:49:37;;;;;;;2.10;1.90;;;;;;;;;;5025525;28;20164;-48
2021/01/07 02:52:03;;;;;;;3.10;2.35;;;;;;;;;;5016667;28;20191;-48
2021/01/07 02:54:29;;;;;;;2.90;2.08;;;;;;;;;;5031611;28;20223;-48
2021/01/07 02:56:55;;;;;;;3.53;2.33;;;;;;;;;;5032027;28;20176;-48
2021/01/07 02:59:21;;;;;;;3.08;2.10;;;;;;;;;;5034944;28;20543;-48
2021/01/07 03:01:47;;;;;;;2.78;2.08;;;;;;;;;;5033381;28;20176;-48
2021/01/07 03:04:13;;;;;;;2.28;1.98;;;;;;;;;;5019111;28;20180;-48
2021/01/07 03:06:39;;;;;;;2.38;1.80;;;;;;;;;;5023173;28;20549;-48
2021/01/07 03:09:05;;;;;;;2.30;2.10;;;;;;;;;;5015463;28;20256;-47
2021/01/07 03:11:31;;;;;;;1.90;1.80;;;;;;;;;;5019728;28;20176;-48
2021/01/07 03:13:57;;;;;;;2.70;1.90;;;;;;;;;;5031226;28;20200;-48
2021/01/07 03:16:23;;;;;;;2.28;1.90;;;;;;;;;;5022818;28;20199;-48
2021/01/07 03:18:49;;;;;;;1.90;1.80;;;;;;;;;;5029405;28;20206;-48
2021/01/07 03:21:15;;;;;;;2.00;1.60;;;;;;;;;;5022296;28;20180;-48
2021/01/07 03:23:41;;;;;;;2.10;1.90;;;;;;;;;;5027035;28;20176;-48
2021/01/07 03:26:07;;;;;;;1.95;1.85;;;;;;;;;;5033116;28;20207;-48
2021/01/07 03:28:33;;;;;;;1.73;1.63;;;;;;;;;;5035328;28;20414;-48
2021/01/07 03:30:59;;;;;;;2.00;1.80;;;;;;;;;;5027032;28;20175;-48
2021/01/07 03:33:25;;;;;;;1.77;1.42;;;;;;;;;;5022599;28;20447;-48
2021/01/07 03:35:51;;;;;;;1.92;1.77;;;;;;;;;;5023615;28;20179;-48
2021/01/07 03:38:17;;;;;;;2.58;1.77;;;;;;;;;;5021270;28;20209;-47
2021/01/07 03:40:43;;;;;;;2.00;1.80;;;;;;;;;;5015529;28;20184;-48
2021/01/07 03:43:09;;;;;;;2.00;1.80;;;;;;;;;;5015681;28;20180;-48
2021/01/07 03:45:35;;;;;;;1.90;1.70;;;;;;;;;;5031506;28;20444;-48
2021/01/07 03:48:01;;;;;;;1.50;1.40;;;;;;;;;;5026532;28;20270;-48
2021/01/07 03:50:27;;;;;;;1.50;1.40;;;;;;;;;;5023837;28;20511;-48
2021/01/07 03:52:53;;;;;;;1.30;1.20;;;;;;;;;;5025607;28;20564;-48
2021/01/07 03:55:19;;;;;;;1.60;1.50;;;;;;;;;;5017513;28;20307;-48
2021/01/07 03:57:45;;;;;;;1.85;1.75;;;;;;;;;;5021212;28;20200;-48
2021/01/07 04:00:12;;;;;;;1.60;1.50;;;;;;;;;;5017930;28;20283;-48
2021/01/07 04:02:38;;;;;;;1.98;1.63;;;;;;;;;;5027083;28;20184;-47
2021/01/07 04:05:04;;;;;;;1.45;1.35;;;;;;;;;;5015981;28;20172;-48
2021/01/07 04:07:30;;;;;;;1.92;1.70;;;;;;;;;;5019884;28;20199;-48
2021/01/07 04:09:56;;;;;;;1.77;1.67;;;;;;;;;;5024269;28;20196;-48
2021/01/07 04:12:22;;;;;;;1.58;1.40;;;;;;;;;;5030935;28;20291;-48
2021/01/07 04:14:48;;;;;;;1.50;1.40;;;;;;;;;;5033525;28;20594;-48
2021/01/07 04:17:14;;;;;;;3.05;1.58;;;;;;;;;;5029967;28;20179;-48
2021/01/07 04:19:42;;;;;;;1.60;1.50;;;;;;;;;;5027413;28;20191;-48
2021/01/07 04:22:08;;;;;;;1.45;1.27;;;;;;;;;;5029513;28;20196;-48
2021/01/07 04:24:33;;;;;;;1.48;1.38;;;;;;;;;;5020240;28;20180;-48
2021/01/07 04:27:02;;;;;;;1.50;1.40;;;;;;;;;;5024077;28;20536;-48
2021/01/07 04:29:28;;;;;;;1.40;1.30;;;;;;;;;;5030345;28;20180;-48
2021/01/07 04:31:54;;;;;;;1.63;1.52;;;;;;;;;;5028077;28;20190;-48
2021/01/07 04:34:20;;;;;;;1.30;1.20;;;;;;;;;;5027465;28;20180;-47
2021/01/07 04:36:46;;;;;;;1.55;1.40;;;;;;;;;;5027335;28;20185;-48
2021/01/07 04:39:12;;;;;;;1.48;1.38;;;;;;;;;;5019885;28;20200;-48
2021/01/07 04:41:38;;;;;;;1.60;1.50;;;;;;;;;;5022596;28;20177;-48
2021/01/07 04:44:04;;;;;;;1.27;1.17;;;;;;;;;;5036463;28;20180;-47
2021/01/07 04:46:30;;;;;;;1.45;1.27;;;;;;;;;;5024839;28;20283;-47
2021/01/07 04:48:57;;;;;;;1.50;1.20;;;;;;;;;;5026890;28;20307;-48
2021/01/07 04:51:23;;;;;;;1.65;1.35;;;;;;;;;;5032176;28;20190;-48
2021/01/07 04:53:49;;;;;;;1.02;1.00;;;;;;;;;;5024295;28;20180;-48
2021/01/07 04:56:15;;;;;;;1.08;1.08;;;;;;;;;;5021583;28;20172;-47
2021/01/07 04:58:41;;;;;;;2.40;1.52;;;;;;;;;;5035963;28;20215;-48
2021/01/07 05:01:07;;;;;;;1.90;1.20;;;;;;;;;;5018217;28;20185;-48
2021/01/07 05:03:34;;;;;;;1.30;1.20;;;;;;;;;;5029088;28;20196;-49
2021/01/07 05:06:00;;;;;;;1.30;1.20;;;;;;;;;;5036082;28;20176;-47
2021/01/07 05:08:27;;;;;;;1.08;1.08;;;;;;;;;;5022363;28;20192;-48
2021/01/07 05:10:53;;;;;;;1.30;1.17;;;;;;;;;;5027945;28;20275;-48
2021/01/07 05:13:20;;;;;;;1.27;1.17;;;;;;;;;;5029929;28;20195;-48
2021/01/07 05:15:46;;;;;;;1.15;1.05;;;;;;;;;;5033044;28;20213;-48
2021/01/07 05:18:12;;;;;;;1.52;1.08;;;;;;;;;;5032005;28;20210;-48
2021/01/07 05:20:39;;;;;;;1.48;1.20;;;;;;;;;;5028345;28;20173;-48
2021/01/07 05:23:05;;;;;;;1.50;1.40;;;;;;;;;;5026060;28;20249;-48
2021/01/07 05:25:31;;;;;;;1.63;1.10;;;;;;;;;;5017182;28;20177;-49
2021/01/07 05:28:04;;;;;;;3.67;1.20;;;;;;;;;;5017937;28;20195;-48
2021/01/07 05:30:32;;;;;;;1.90;1.05;;;;;;;;;;5019368;28;20241;-48
2021/01/07 05:33:02;;;;;;;3.00;1.20;;;;;;;;;;5030810;28;20188;-48
2021/01/07 05:35:29;;;;;;;3.40;1.05;;;;;;;;;;5023650;28;20745;-48
2021/01/07 05:37:55;;;;;;;1.83;1.20;;;;;;;;;;5028603;28;20215;-48
2021/01/07 05:40:22;;;;;;;2.28;1.40;;;;;;;;;;5035191;28;20184;-48
2021/01/07 05:42:48;;;;;;;1.92;1.10;;;;;;;;;;5030111;28;20177;-48
2021/01/07 05:45:16;;;;;;;2.47;1.13;;;;;;;;;;5030854;28;20184;-48
2021/01/07 05:47:46;;;;;;;1.35;1.10;;;;;;;;;;5035168;28;20234;-48
2021/01/07 05:50:13;;;;;;;2.95;1.25;;;;;;;;;;5030895;28;20642;-48
2021/01/07 05:52:41;;;;;;;1.23;1.13;;;;;;;;;;5031842;28;20187;-48
2021/01/07 05:55:07;;;;;;;1.67;1.30;;;;;;;;;;5019734;28;20246;-48
2021/01/07 05:57:36;;;;;;;1.40;1.30;;;;;;;;;;5034588;28;20617;-48
2021/01/07 06:00:04;;;;;;;3.38;1.30;;;;;;;;;;5026675;28;20183;-48
2021/01/07 06:02:32;;;;;;;1.35;1.25;;;;;;;;;;5035345;28;20250;-48
2021/01/07 06:04:58;;;;;;;1.58;1.20;;;;;;;;;;5019418;28;20176;-48
2021/01/07 06:07:26;;;;;;;3.13;1.20;;;;;;;;;;5031147;28;20180;-48
2021/01/07 06:09:53;;;;;;;2.88;1.20;;;;;;;;;;5016522;28;20180;-48
2021/01/07 06:12:19;;;;;;;1.73;1.15;;;;;;;;;;5030089;28;20612;-48
2021/01/07 06:14:46;;;;;;;1.58;1.30;;;;;;;;;;5034080;28;20295;-48
2021/01/07 06:17:12;;;;;;;1.33;1.02;;;;;;;;;;5034296;28;20180;-48
2021/01/07 06:19:40;;;;;;;1.52;1.20;;;;;;;;;;5034438;28;20172;-48
2021/01/07 06:22:10;;;;;;;1.75;1.50;;;;;;;;;;5018878;28;20517;-48
2021/01/07 06:24:37;;;;;;;1.88;1.38;;;;;;;;;;5031894;28;21037;-48
2021/01/07 06:27:23;;;;;;;1.55;1.45;;;;;;;;;;5022678;28;20219;-48
2021/01/07 06:29:53;;;;;;;2.33;1.30;;;;;;;;;;5031177;28;20589;-48
2021/01/07 06:32:20;;;;;;;1.25;1.13;;;;;;;;;;5029711;28;20183;-48
2021/01/07 06:34:48;;;;;;;1.38;1.20;;;;;;;;;;5030005;28;20180;-48
2021/01/07 06:37:14;;;;;;;1.67;1.20;;;;;;;;;;5029373;28;20173;-48
2021/01/07 06:39:44;;;;;;;2.65;1.38;;;;;;;;;;5029625;28;20507;-48
2021/01/07 06:42:19;;;;;;;1.40;1.30;;;;;;;;;;5029815;28;20171;-48
2021/01/07 06:44:46;;;;;;;2.58;1.10;;;;;;;;;;5024212;28;20187;-48
2021/01/07 06:47:18;;;;;;;2.50;1.10;;;;;;;;;;5021695;28;20544;-48
2021/01/07 06:49:45;;;;;;;2.33;1.33;;;;;;;;;;5027119;28;20188;-48
2021/01/07 06:52:11;;;;;;;1.33;1.17;;;;;;;;;;5020872;28;20191;-48
2021/01/07 06:54:40;;;;;;;1.27;1.15;;;;;;;;;;5029162;28;20164;-48
2021/01/07 06:57:08;;;;;;;1.40;1.10;;;;;;;;;;5032196;28;20180;-48
2021/01/07 06:59:34;;;;;;;1.33;1.25;;;;;;;;;;5026607;28;20607;-48
2021/01/07 07:02:00;;;;;;;1.52;1.20;;;;;;;;;;5031608;28;20172;-48
2021/01/07 07:04:30;;;;;;;1.27;1.17;;;;;;;;;;5018196;28;20189;-48
2021/01/07 07:07:03;;;;;;;1.70;1.10;;;;;;;;;;5020051;28;20574;-46
2021/01/07 07:09:41;;;;;;;2.75;1.30;;;;;;;;;;5032703;28;20183;-48
2021/01/07 07:12:07;;;;;;;1.65;1.17;;;;;;;;;;5033781;28;20176;-48
2021/01/07 07:14:34;;;;;;;1.00;0.88;;;;;;;;;;5019071;28;20556;-48
2021/01/07 07:17:09;;;;;;;1.23;1.15;;;;;;;;;;5021314;28;20187;-48
2021/01/07 07:19:40;;;;;;;1.73;1.20;;;;;;;;;;5022059;28;20176;-48
2021/01/07 07:22:09;;;;;;;1.98;1.20;;;;;;;;;;5015532;28;20231;-48
2021/01/07 07:24:48;;;;;;;2.20;1.33;;;;;;;;;;5016928;28;20246;-48
2021/01/07 07:27:14;;;;;;;1.38;1.00;;;;;;;;;;5018386;28;20571;-48
2021/01/07 07:29:44;;;;;;;0.88;0.82;;;;;;;;;;5020004;28;20190;-48
2021/01/07 07:32:24;;;;;;;1.15;1.05;;;;;;;;;;5028906;28;20591;-47
2021/01/07 07:34:50;;;;;;;2.30;1.38;;;;;;;;;;5015127;28;20176;-48
2021/01/07 07:37:26;;;;;;;1.00;0.82;;;;;;;;;;5022965;28;20175;-47
2021/01/07 07:40:03;;;;;;;0.80;0.80;;;;;;;;;;5015936;28;20459;-49
2021/01/07 07:42:30;;;;;;;1.30;1.20;;;;;;;;;;5018848;28;20199;-48
2021/01/07 07:44:57;;;;;;;0.98;0.90;;;;;;;;;;5020013;28;20388;-48
2021/01/07 07:47:23;;;;;;;1.45;1.10;;;;;;;;;;5032738;28;20704;-48
2021/01/07 07:49:56;;;;;;;1.25;1.00;;;;;;;;;;5032305;28;20180;-48
2021/01/07 07:52:22;;;;;;;1.10;1.00;;;;;;;;;;5022792;28;20187;-48
2021/01/07 07:55:04;;;;;;;1.33;1.23;;;;;;;;;;5025874;28;20164;-49
2021/01/07 07:57:32;;;;;;;1.05;0.95;;;;;;;;;;5020911;28;20270;-48
2021/01/07 08:00:17;;;;;;;1.25;1.05;;;;;;;;;;5023878;28;20169;-49
2021/01/07 08:02:44;;;;;;;1.27;1.17;;;;;;;;;;5032021;28;20184;-48
2021/01/07 08:05:11;;;;;;;1.20;1.08;;;;;;;;;;5015194;28;20590;-48
2021/01/07 08:07:37;;;;;;;0.98;0.82;;;;;;;;;;5016263;28;20234;-48
2021/01/07 08:10:06;;;;;;;2.67;1.10;;;;;;;;;;5019819;28;20262;-48
2021/01/07 08:12:34;;;;;;;0.90;0.90;;;;;;;;;;5038591;28;20262;-48
2021/01/07 08:15:00;;;;;;;1.67;1.27;;;;;;;;;;5019779;28;20560;-48
2021/01/07 08:17:26;;;;;;;1.60;1.30;;;;;;;;;;5022682;28;20209;-48
2021/01/07 08:19:52;;;;;;;1.30;1.20;;;;;;;;;;5022270;28;20184;-48
2021/01/07 08:22:26;;;;;;;1.05;0.90;;;;;;;;;;5018747;28;20215;-48
2021/01/07 08:24:52;;;;;;;1.83;1.20;;;;;;;;;;5024638;28;20190;-48
2021/01/07 08:27:19;;;;;;;1.23;1.15;;;;;;;;;;5026069;28;20315;-48
2021/01/07 08:29:46;;;;;;;3.33;1.38;;;;;;;;;;5030386;28;20255;-48
2021/01/07 08:32:15;;;;;;;1.15;1.05;;;;;;;;;;5030079;28;20175;-48
2021/01/07 08:34:41;;;;;;;1.25;1.15;;;;;;;;;;5022438;28;20172;-48
2021/01/07 08:37:16;;;;;;;1.42;1.33;;;;;;;;;;5036388;28;20190;-48
2021/01/07 08:39:42;;;;;;;1.45;1.20;;;;;;;;;;5031475;28;20176;-48
2021/01/07 08:42:09;;;;;;;1.20;1.10;;;;;;;;;;5031388;28;20176;-48
2021/01/07 08:44:35;;;;;;;1.30;1.20;;;;;;;;;;5017982;28;20215;-48
2021/01/07 08:47:02;;;;;;;1.40;1.30;;;;;;;;;;5023794;28;20664;-48
2021/01/07 08:49:28;;;;;;;1.17;1.08;;;;;;;;;;5024078;28;20181;-48
2021/01/07 08:51:58;;;;;;;3.42;1.02;;;;;;;;;;5018146;28;20196;-48
2021/01/07 08:54:24;;;;;;;1.13;1.02;;;;;;;;;;5027314;28;20730;-47
2021/01/07 08:56:55;;;;;;;1.30;1.20;;;;;;;;;;5028868;28;20183;-48
2021/01/07 08:59:21;;;;;;;1.63;1.10;;;;;;;;;;5035897;28;20298;-48
2021/01/07 09:01:48;;;;;;;1.13;1.10;;;;;;;;;;5035812;28;20182;-48
2021/01/07 09:04:24;;;;;;;1.30;1.20;;;;;;;;;;5030183;28;20466;-49
2021/01/07 09:06:57;;;;;;;1.40;1.25;;;;;;;;;;5025211;28;20199;-48
2021/01/07 09:09:23;;;;;;;1.70;1.60;;;;;;;;;;5035955;28;20172;-48
2021/01/07 09:11:49;;;;;;;1.58;1.35;;;;;;;;;;5018040;28;20446;-48
2021/01/07 09:14:15;;;;;;;1.40;1.30;;;;;;;;;;5027066;28;20612;-48
2021/01/07 09:16:57;;;;;;;2.30;1.60;;;;;;;;;;5024737;28;20263;-48
2021/01/07 09:19:23;;;;;;;1.50;1.17;;;;;;;;;;5023829;28;20840;-48
2021/01/07 09:21:58;;;;;;;1.42;1.23;;;;;;;;;;5017430;28;20275;-48
2021/01/07 09:24:24;;;;;;;1.25;1.15;;;;;;;;;;5026782;28;20183;-47
2021/01/07 09:26:50;;;;;;;1.40;1.30;;;;;;;;;;5037218;28;20172;-48
2021/01/07 09:29:16;;;;;;;1.40;1.30;;;;;;;;;;5036704;28;20172;-47
2021/01/07 09:31:42;;;;;;;2.85;1.60;;;;;;;;;;5024094;28;20275;-48
2021/01/07 09:34:08;;;;;;;1.35;1.23;;;;;;;;;;5022103;28;20180;-47
2021/01/07 09:36:34;;;;;;;1.73;1.30;;;;;;;;;;5017567;28;20523;-48
2021/01/07 09:39:00;;;;;;;1.70;1.30;;;;;;;;;;5020858;28;20476;-48
2021/01/07 09:41:26;;;;;;;1.50;1.40;;;;;;;;;;5036321;28;20172;-47
2021/01/07 09:43:52;;;;;;;2.42;1.40;;;;;;;;;;5026530;28;20280;-48
2021/01/07 09:46:18;;;;;;;1.42;1.23;;;;;;;;;;5031624;28;20188;-49
2021/01/07 09:48:44;;;;;;;1.40;1.30;;;;;;;;;;5031268;28;20249;-48
2021/01/07 09:51:10;;;;;;;1.20;1.10;;;;;;;;;;5030659;28;20279;-48
2021/01/07 09:53:36;;;;;;;1.42;1.33;;;;;;;;;;5020614;28;20302;-47
2021/01/07 09:56:02;;;;;;;1.63;1.20;;;;;;;;;;5023190;28;20188;-48
2021/01/07 09:58:28;;;;;;;1.63;1.42;;;;;;;;;;5021649;28;20231;-48
2021/01/07 10:00:54;;;;;;;1.67;1.35;;;;;;;;;;5032932;28;20210;-48
2021/01/07 10:03:20;;;;;;;1.38;1.27;;;;;;;;;;5030967;28;20187;-48
2021/01/07 10:05:46;;;;;;;1.30;1.20;;;;;;;;;;5031939;28;20243;-47
2021/01/07 10:08:12;;;;;;;2.03;1.27;;;;;;;;;;5019248;28;20306;-48
2021/01/07 10:10:38;;;;;;;1.48;1.38;;;;;;;;;;5027591;28;20187;-48
2021/01/07 10:13:04;;;;;;;1.92;1.30;;;;;;;;;;5030450;28;20195;-48
2021/01/07 10:15:30;;;;;;;2.10;1.17;;;;;;;;;;5035386;28;20195;-48
2021/01/07 10:17:56;;;;;;;1.50;1.40;;;;;;;;;;5033843;28;20590;-48
2021/01/07 10:20:22;;;;;;;1.20;1.10;;;;;;;;;;5037895;28;20179;-47
2021/01/07 10:22:49;;;;;;;1.40;1.27;;;;;;;;;;5056096;28;20197;-48
2021/01/07 10:25:15;;;;;;;1.52;1.40;;;;;;;;;;5038136;28;20493;-48
2021/01/07 10:27:42;;;;;;;1.20;1.10;;;;;;;;;;5025607;28;20181;-48
2021/01/07 10:30:08;;;;;;;1.40;1.27;;;;;;;;;;5016402;28;20176;-47
2021/01/07 10:32:34;;;;;;;2.30;1.15;;;;;;;;;;5026290;28;20176;-48
2021/01/07 10:35:00;;;;;;;1.20;1.10;;;;;;;;;;5018525;28;20177;-48
2021/01/07 10:37:27;;;;;;;1.25;1.15;;;;;;;;;;5017298;28;20422;-49
2021/01/07 10:39:53;;;;;;;1.30;1.20;;;;;;;;;;5017994;28;20761;-48
2021/01/07 10:42:20;;;;;;;0.93;0.93;;;;;;;;;;5021960;28;20185;-47
2021/01/07 10:44:47;;;;;;;1.35;1.17;;;;;;;;;;5029764;28;20213;-47
2021/01/07 10:47:14;;;;;;;1.23;1.13;;;;;;;;;;5030716;28;20179;-48
2021/01/07 10:49:41;;;;;;;1.30;1.20;;;;;;;;;;5033818;28;20595;-48
2021/01/07 10:52:07;;;;;;;2.45;1.60;;;;;;;;;;5032863;28;20233;-48
2021/01/07 10:54:48;;;;;;;1.20;1.15;;;;;;;;;;5031671;28;20258;-48
2021/01/07 10:57:23;;;;;;;1.55;1.45;;;;;;;;;;5034084;28;20487;-47
2021/01/07 11:00:02;;;;;;;3.10;1.42;;;;;;;;;;5035251;28;20171;-48
2021/01/07 11:02:31;;;;;;;1.60;1.50;;;;;;;;;;5017880;28;20200;-49
2021/01/07 11:05:03;;;;;;;3.85;1.65;;;;;;;;;;5022340;28;20177;-48
2021/01/07 11:07:32;;;;;;;2.03;1.55;;;;;;;;;;5029932;28;20267;-48
2021/01/07 11:10:05;;;;;;;1.48;1.13;;;;;;;;;;5033450;28;20177;-47
2021/01/07 11:12:35;;;;;;;5.30;1.70;;;;;;;;;;5021676;28;20172;-47
2021/01/07 11:15:04;;;;;;;2.83;1.10;;;;;;;;;;5024196;28;20180;-48
2021/01/07 11:17:32;;;;;;;1.67;1.50;;;;;;;;;;5024494;28;20206;-47
2021/01/07 11:20:02;;;;;;;1.60;1.50;;;;;;;;;;5016797;28;20219;-48
2021/01/07 11:22:29;;;;;;;3.45;1.48;;;;;;;;;;5034152;28;20200;-47
2021/01/07 11:24:56;;;;;;;1.75;1.38;;;;;;;;;;5023395;28;20259;-48
2021/01/07 11:27:22;;;;;;;2.75;1.50;;;;;;;;;;5022235;28;20467;-49
2021/01/07 11:29:48;;;;;;;4.90;1.55;;;;;;;;;;5035118;28;20290;-48
2021/01/07 11:32:15;;;;;;;1.40;1.30;;;;;;;;;;5021605;28;20267;-48
2021/01/07 11:34:41;;;;;;;2.35;1.20;;;;;;;;;;5017922;28;20187;-48
2021/01/07 11:37:10;;;;;;;1.67;1.52;;;;;;;;;;5049249;28;20270;-49
2021/01/07 11:39:42;;;;;;;1.50;1.40;;;;;;;;;;5049386;28;20199;-48
2021/01/07 11:42:10;;;;;;;2.08;1.55;;;;;;;;;;5021554;28;20243;-48
2021/01/07 11:44:36;;;;;;;2.15;1.60;;;;;;;;;;5032272;28;20176;-48
2021/01/07 11:47:05;;;;;;;1.98;1.45;;;;;;;;;;5023961;28;20180;-48
2021/01/07 11:49:33;;;;;;;1.70;1.60;;;;;;;;;;5019176;28;20440;-48
2021/01/07 11:51:58;;;;;;;1.30;1.20;;;;;;;;;;5025057;28;20188;-48
2021/01/07 11:54:25;;;;;;;1.88;1.48;;;;;;;;;;5018727;28;20180;-48
2021/01/07 11:56:51;;;;;;;2.55;1.45;;;;;;;;;;5014816;28;20252;-48
2021/01/07 11:59:18;;;;;;;1.60;1.45;;;;;;;;;;5031924;28;20203;-48
2021/01/07 12:01:45;;;;;;;1.73;1.63;;;;;;;;;;5017545;28;20479;-48
2021/01/07 12:04:11;;;;;;;1.35;1.25;;;;;;;;;;5015534;28;20184;-48
2021/01/07 12:06:40;;;;;;;1.85;1.52;;;;;;;;;;5037071;28;20194;-48
2021/01/07 12:09:42;;;;;;;1.27;1.17;;;;;;;;;;5034636;28;20626;-47
2021/01/07 12:12:15;;;;;;;1.80;1.70;;;;;;;;;;4981217;28;20189;-49
2021/01/07 12:14:51;;;;;;;2.17;1.55;;;;;;;;;;5016190;28;20210;-48
2021/01/07 12:17:17;;;;;;;2.85;1.50;;;;;;;;;;5024407;28;20195;-47
2021/01/07 12:19:44;;;;;;;2.63;1.40;;;;;;;;;;5031785;28;20239;-48
2021/01/07 12:22:15;;;;;;;2.78;1.63;;;;;;;;;;5031803;28;20200;-47
2021/01/07 12:24:42;;;;;;;3.35;1.30;;;;;;;;;;5030463;28;20645;-48
2021/01/07 12:27:09;;;;;;;2.70;1.45;;;;;;;;;;5028266;28;20172;-48
2021/01/07 12:29:39;;;;;;;8.23;1.80;;;;;;;;;;5023469;28;20269;-49
2021/01/07 12:32:28;;;;;;;1.83;1.70;;;;;;;;;;5024403;28;20188;-47
2021/01/07 12:35:03;;;;;;;1.63;1.48;;;;;;;;;;5019954;28;20206;-49
2021/01/07 12:37:31;;;;;;;1.67;1.50;;;;;;;;;;5027742;28;20176;-48
2021/01/07 12:40:02;;;;;;;3.08;1.67;;;;;;;;;;5024431;28;20184;-47
2021/01/07 12:42:29;;;;;;;2.83;1.60;;;;;;;;;;5033824;28;20184;-49
2021/01/07 12:44:57;;;;;;;1.80;1.55;;;;;;;;;;5030213;28;20176;-49
2021/01/07 12:47:23;;;;;;;1.90;1.73;;;;;;;;;;5033360;28;20175;-47
2021/01/07 12:49:50;;;;;;;1.83;1.70;;;;;;;;;;5018723;28;20203;-47
2021/01/07 12:52:16;;;;;;;2.20;1.65;;;;;;;;;;5023401;28;20172;-48
2021/01/07 12:54:43;;;;;;;1.63;1.52;;;;;;;;;;5014671;28;20181;-48
2021/01/07 12:57:13;;;;;;;1.80;1.70;;;;;;;;;;5019159;28;20444;-49
2021/01/07 12:59:57;;;;;;;2.85;1.70;;;;;;;;;;5036043;28;20207;-48
2021/01/07 13:02:43;;;;;;;8.13;1.80;;;;;;;;;;5024554;28;20176;-47
2021/01/07 13:05:18;;;;;;;2.05;1.60;;;;;;;;;;5027821;28;20179;-48
2021/01/07 13:07:44;;;;;;;5.57;2.15;;;;;;;;;;5033754;28;20448;-48
2021/01/07 13:10:11;;;;;;;2.13;1.85;;;;;;;;;;5030995;28;20266;-48
2021/01/07 13:12:39;;;;;;;1.70;1.60;;;;;;;;;;5030905;28;20179;-48
2021/01/07 13:15:06;;;;;;;1.70;1.60;;;;;;;;;;5029234;28;20193;-48
2021/01/07 13:17:32;;;;;;;3.80;2.10;;;;;;;;;;5028882;28;20172;-48
2021/01/07 13:19:59;;;;;;;2.45;2.08;;;;;;;;;;5023111;28;20590;-47
2021/01/07 13:22:25;;;;;;;3.40;1.90;;;;;;;;;;5018144;28;20287;-48
2021/01/07 13:24:51;;;;;;;2.70;1.65;;;;;;;;;;5024089;28;20176;-48
2021/01/07 13:27:21;;;;;;;1.58;1.48;;;;;;;;;;5022937;28;20196;-47
2021/01/07 13:29:47;;;;;;;3.33;1.73;;;;;;;;;;5021583;28;20483;-48
2021/01/07 13:32:17;;;;;;;3.10;1.70;;;;;;;;;;5021103;28;20184;-47
2021/01/07 13:34:43;;;;;;;3.05;1.60;;;;;;;;;;5025485;28;20168;-48
2021/01/07 13:37:16;;;;;;;2.42;1.75;;;;;;;;;;5026975;28;20181;-48
2021/01/07 13:39:42;;;;;;;3.65;1.80;;;;;;;;;;5022312;28;20226;-48
2021/01/07 13:42:09;;;;;;;2.08;1.85;;;;;;;;;;5035555;28;20258;-48
2021/01/07 13:44:36;;;;;;;2.72;1.90;;;;;;;;;;5031046;28;20173;-48
2021/01/07 13:47:02;;;;;;;3.88;1.95;;;;;;;;;;5023702;28;20176;-48
2021/01/07 13:49:31;;;;;;;2.13;1.80;;;;;;;;;;5032993;28;20171;-48
2021/01/07 13:51:58;;;;;;;2.78;1.70;;;;;;;;;;5020917;28;20251;-48
2021/01/07 13:54:25;;;;;;;2.13;1.88;;;;;;;;;;5028072;28;20187;-48
2021/01/07 13:56:52;;;;;;;6.10;2.00;;;;;;;;;;5033448;28;20211;-47
2021/01/07 13:59:18;;;;;;;2.38;2.05;;;;;;;;;;5024479;28;20216;-48
2021/01/07 14:01:44;;;;;;;3.08;1.88;;;;;;;;;;5030065;28;20234;-48
2021/01/07 14:04:10;;;;;;;3.95;1.88;;;;;;;;;;5029994;28;20172;-48
2021/01/07 14:06:36;;;;;;;3.60;1.77;;;;;;;;;;5026428;28;20256;-48
2021/01/07 14:09:16;;;;;;;4.32;1.80;;;;;;;;;;5036746;28;20552;-48
2021/01/07 14:11:46;;;;;;;4.32;1.88;;;;;;;;;;5030492;28;20193;-48
2021/01/07 14:14:12;;;;;;;2.33;1.90;;;;;;;;;;5026786;28;20463;-48
2021/01/07 14:16:38;;;;;;;3.47;2.17;;;;;;;;;;5027283;28;20614;-48
2021/01/07 14:19:05;;;;;;;3.28;1.80;;;;;;;;;;5032061;28;20204;-48
2021/01/07 14:21:32;;;;;;;2.78;2.28;;;;;;;;;;5023403;28;20176;-48
2021/01/07 14:23:58;;;;;;;3.80;1.85;;;;;;;;;;5022323;28;20191;-48
2021/01/07 14:26:25;;;;;;;5.28;2.00;;;;;;;;;;5016101;28;20165;-48
2021/01/07 14:28:51;;;;;;;3.63;1.88;;;;;;;;;;5017564;28;20230;-48
2021/01/07 14:31:19;;;;;;;3.95;2.00;;;;;;;;;;5018137;28;20188;-48
2021/01/07 14:33:48;;;;;;;13.60;4.00;;;;;;;;;;5034414;28;20232;-48
2021/01/07 14:36:17;;;;;;;37.30;8.57;;;;;;;;;;5020171;28;20207;-48
2021/01/07 14:38:43;;;;;;;31.40;7.13;;;;;;;;;;5032562;28;20203;-48
2021/01/07 14:41:09;;;;;;;21.70;6.32;;;;;;;;;;5016500;28;20231;-48
2021/01/07 14:43:35;;;;;;;29.55;7.63;;;;;;;;;;5033230;28;20472;-48
2021/01/07 14:46:05;;;;;;;29.67;8.30;;;;;;;;;;5017131;28;20670;-49